createdAt,value
2018-06-02T05:05:30.589Z,95592.78
2018-06-02T05:10:33.887Z,95590.51
2018-06-02T05:15:37.931Z,95593.55
2018-06-02T05:20:41.223Z,95591.87
2018-06-02T05:25:45.276Z,95593.44
2018-06-02T05:30:48.780Z,95604.59
2018-06-02T05:35:52.417Z,95604.95
2018-06-02T05:40:55.915Z,95600.78
2018-06-02T05:46:00.298Z,95598.60
2018-06-02T05:51:03.558Z,95594.70
2018-06-02T05:56:07.615Z,95601.97
2018-06-02T06:01:10.936Z,95602.48
2018-06-02T06:06:14.222Z,95599.38
2018-06-02T06:11:17.507Z,95596.70
2018-06-02T06:16:21.087Z,95589.27
2018-06-02T06:21:24.621Z,95594.11
2018-06-02T06:26:28.081Z,95602.37
2018-06-02T06:31:31.360Z,95593.56
2018-06-02T06:36:34.644Z,95598.52
2018-06-02T06:41:37.925Z,95595.81
2018-06-02T06:46:41.203Z,95599.26
2018-06-02T06:51:45.258Z,95588.58
2018-06-02T06:56:49.313Z,95596.73
2018-06-02T07:01:52.587Z,95598.52
2018-06-02T07:06:55.867Z,95595.23
2018-06-02T07:11:59.170Z,95596.69
2018-06-02T07:17:02.443Z,95594.08
2018-06-02T07:22:05.735Z,95603.08
2018-06-02T07:27:09.894Z,95593.63
2018-06-02T07:32:13.196Z,95588.55
2018-06-02T07:37:16.480Z,95584.30
2018-06-02T07:42:20.639Z,95587.52
2018-06-02T07:47:23.942Z,95589.84
2018-06-02T07:52:27.343Z,95595.61
2018-06-02T07:57:31.411Z,95591.80
2018-06-02T08:02:34.800Z,95592.18
2018-06-02T08:07:38.199Z,95590.56
2018-06-02T08:12:41.605Z,95586.72
2018-06-02T08:17:46.430Z,95586.24
2018-06-02T08:22:49.872Z,95589.00
2018-06-02T08:27:54.095Z,95589.33
2018-06-02T08:32:58.264Z,95603.08
2018-06-02T08:38:01.638Z,95608.93
2018-06-02T08:43:05.071Z,95598.62
2018-06-02T08:48:09.116Z,95607.66
2018-06-02T08:53:12.406Z,95598.75
2018-06-02T08:58:16.456Z,95599.16
2018-06-02T09:03:19.739Z,95593.26
2018-06-02T09:08:23.800Z,95596.65
2018-06-02T09:13:27.089Z,95602.19
2018-06-02T09:18:30.375Z,95594.42
2018-06-02T09:23:33.668Z,95602.13
2018-06-02T09:28:36.960Z,95596.61
2018-06-02T09:33:40.250Z,95589.70
2018-06-02T09:38:43.525Z,95593.16
2018-06-02T09:43:46.824Z,95582.13
2018-06-02T09:48:50.135Z,95590.50
2018-06-02T09:53:53.415Z,95591.55
2018-06-02T09:58:56.704Z,95590.10
2018-06-02T10:03:59.984Z,95578.88
2018-06-02T10:09:03.273Z,95578.44
2018-06-02T10:14:06.551Z,95575.49
2018-06-02T10:19:09.848Z,95570.67
2018-06-02T10:24:13.149Z,95571.13
2018-06-02T10:29:17.195Z,95561.56
2018-06-02T10:34:20.490Z,95566.11
2018-06-02T10:39:24.544Z,95565.84
2018-06-02T10:44:27.901Z,95561.78
2018-06-02T10:49:31.883Z,95558.61
2018-06-02T10:54:35.172Z,95555.27
2018-06-02T10:59:39.227Z,95556.19
2018-06-02T11:04:42.513Z,95553.45
2018-06-02T11:09:46.576Z,95537.58
2018-06-02T11:14:49.860Z,95546.15
2018-06-02T11:19:53.919Z,95539.46
2018-06-02T11:24:57.228Z,95530.15
2018-06-02T11:30:03.547Z,95526.36
2018-06-02T11:35:07.167Z,95522.14
2018-06-02T11:40:10.468Z,95518.00
2018-06-02T11:45:13.769Z,95512.47
2018-06-02T11:50:17.063Z,95511.48
2018-06-02T11:55:20.358Z,95487.92
2018-06-02T12:00:24.405Z,95494.87
2018-06-02T12:05:27.719Z,95491.98
2018-06-02T12:10:31.209Z,95485.89
2018-06-02T12:15:35.260Z,95481.67
2018-06-02T12:20:38.567Z,95476.64
2018-06-02T12:25:41.851Z,95482.78
2018-06-02T12:30:46.088Z,95469.72
2018-06-02T12:35:50.150Z,95469.30
2018-06-02T12:40:53.423Z,95463.37
2018-06-02T12:45:57.681Z,95468.17
2018-06-02T12:51:00.989Z,95455.59
2018-06-02T12:56:04.306Z,95452.44
2018-06-02T13:01:07.584Z,95447.59
2018-06-02T13:06:10.862Z,95435.17
2018-06-02T13:11:14.145Z,95435.50
2018-06-02T13:16:17.424Z,95430.50
2018-06-02T13:21:21.484Z,95425.99
2018-06-02T13:26:24.784Z,95423.68
2018-06-02T13:31:28.079Z,95414.27
2018-06-02T13:36:32.127Z,95418.45
2018-06-02T13:41:35.412Z,95418.88
2018-06-02T13:46:38.803Z,95415.15
2018-06-02T13:51:42.088Z,95412.61
2018-06-02T13:56:45.376Z,95408.22
2018-06-02T14:01:48.778Z,95408.78
2018-06-02T14:06:53.287Z,95405.66
2018-06-02T14:11:56.576Z,95402.96
2018-06-02T14:16:59.864Z,95397.63
2018-06-02T14:22:03.181Z,95398.91
2018-06-02T14:27:06.867Z,95388.42
2018-06-02T14:32:10.930Z,95396.38
2018-06-02T14:37:14.419Z,95398.42
2018-06-02T14:42:17.831Z,95383.52
2018-06-02T14:47:21.886Z,95373.64
2018-06-02T14:52:25.172Z,95369.31
2018-06-02T14:57:29.228Z,95373.59
2018-06-02T15:02:32.516Z,95371.83
2018-06-02T15:07:36.566Z,95370.84
2018-06-02T15:12:39.835Z,95366.94
2018-06-02T15:17:43.162Z,95364.28
2018-06-02T15:22:46.424Z,95355.84
2018-06-02T15:27:49.700Z,95346.47
2018-06-02T15:32:53.004Z,95346.48
2018-06-02T15:37:57.043Z,95347.45
2018-06-02T15:43:00.340Z,95340.58
2018-06-02T15:48:04.386Z,95340.66
2018-06-02T15:53:07.678Z,95345.47
2018-06-02T15:58:11.740Z,95345.53
2018-06-02T16:03:15.027Z,95342.19
2018-06-02T16:08:18.303Z,95343.17
2018-06-02T16:13:21.592Z,95346.86
2018-06-02T16:18:24.888Z,95347.42
2018-06-02T16:23:28.178Z,95344.24
2018-06-02T16:28:31.464Z,95342.50
2018-06-02T16:33:35.523Z,95342.19
2018-06-02T16:38:38.806Z,95339.20
2018-06-02T16:43:43.051Z,95343.53
2018-06-02T16:48:47.136Z,95338.92
2018-06-02T16:53:50.421Z,95338.36
2018-06-02T16:58:53.741Z,95340.92
2018-06-02T17:03:57.056Z,95331.73
2018-06-02T17:09:00.364Z,95333.52
2018-06-02T17:14:03.689Z,95333.86
2018-06-02T17:19:06.944Z,95339.02
2018-06-02T17:24:11.008Z,95352.30
2018-06-02T17:29:14.305Z,95354.19
2018-06-02T17:34:18.522Z,95356.28
2018-06-02T17:39:35.312Z,95349.19
2018-06-02T17:44:38.704Z,95351.44
2018-06-02T17:49:42.090Z,95360.53
2018-06-02T17:54:45.496Z,95359.36
2018-06-02T17:59:50.560Z,95358.08
2018-06-02T18:04:53.858Z,95358.55
2018-06-02T18:10:04.528Z,95362.83
2018-06-02T18:15:08.593Z,95365.48
2018-06-02T18:20:19.052Z,95364.63
2018-06-02T18:25:23.107Z,95358.23
2018-06-02T18:30:26.383Z,95362.23
2018-06-02T18:35:30.452Z,95361.98
2018-06-02T18:46:14.925Z,95373.59
2018-06-02T18:51:18.979Z,95368.48
2018-06-02T18:56:22.264Z,95379.86
2018-06-02T19:01:26.312Z,95380.52
2018-06-02T19:06:29.713Z,95387.75
2018-06-02T19:11:33.777Z,95393.09
2018-06-02T19:16:37.057Z,95397.23
2018-06-02T19:21:41.216Z,95404.52
2018-06-02T19:26:44.511Z,95411.17
2018-06-02T19:31:47.795Z,95411.67
2018-06-02T19:36:51.857Z,95416.40
2018-06-02T19:41:55.953Z,95420.78
2018-06-02T19:46:59.221Z,95415.44
2018-06-02T19:52:02.502Z,95427.22
2018-06-02T19:57:05.801Z,95430.59
2018-06-02T20:02:09.869Z,95443.96
2018-06-02T20:07:13.159Z,95448.70
2018-06-02T20:12:16.471Z,95455.31
2018-06-02T20:17:20.798Z,95457.70
2018-06-02T20:22:25.033Z,95457.17
2018-06-02T20:27:29.111Z,95461.38
2018-06-02T20:32:32.414Z,95453.38
2018-06-02T20:37:35.715Z,95452.97
2018-06-02T20:42:38.987Z,95450.52
2018-06-02T20:47:42.339Z,95463.08
2018-06-02T20:52:46.456Z,95463.43
2018-06-02T20:57:49.753Z,95463.45
2018-06-02T21:02:53.584Z,95464.30
2018-06-02T21:07:57.656Z,95462.78
2018-06-02T21:13:01.067Z,95468.38
2018-06-02T21:18:04.399Z,95475.02
2018-06-02T21:23:07.684Z,95469.44
2018-06-02T21:28:11.014Z,95477.45
2018-06-02T21:33:14.335Z,95475.02
2018-06-02T21:38:17.632Z,95478.37
2018-06-02T21:43:20.928Z,95487.88
2018-06-02T21:48:24.213Z,95492.03
2018-06-02T21:53:27.491Z,95495.45
2018-06-02T21:58:31.548Z,95498.10
2018-06-02T22:03:34.837Z,95494.83
2018-06-02T22:08:38.111Z,95491.48
2018-06-02T22:13:41.472Z,95489.18
2018-06-02T22:18:45.527Z,95490.83
2018-06-02T22:23:48.807Z,95495.75
2018-06-02T22:28:52.870Z,95500.00
